Time;durP1;ratioP1;P1;durP2;ratioP2;P2;SDS_P1;SDS_P2;PMS_P1;PMS_P2;Temp;Humidity;BMP_temperature;BMP_pressure;BME280_temperature;BME280_humidity;BME280_pressure;Samples;Min_cycle;Max_cycle;Signal;HPM_P1;HPM_P2
2022/02/19 02:03:43;;;;;;;1.45;0.65;;;;;;;3.44;85.26;96382.33;1733751;81;20901;-60
2022/02/19 02:06:11;;;;;;;2.52;0.72;;;;;;;3.48;85.37;96370.88;1723292;81;21207;-61
2022/02/19 02:08:39;;;;;;;1.87;0.85;;;;;;;3.52;85.32;96369.70;1747949;81;20897;-61
2022/02/19 02:11:06;;;;;;;2.92;0.65;;;;;;;3.58;85.35;96369.25;1739474;81;21542;-61
2022/02/19 02:13:33;;;;;;;1.72;0.68;;;;;;;3.65;85.13;96383.38;1735368;81;21094;-61
2022/02/19 02:16:00;;;;;;;3.05;0.80;;;;;;;3.79;85.16;96338.50;1735414;81;20993;-61
2022/02/19 02:18:27;;;;;;;2.42;0.80;;;;;;;3.90;84.96;96357.06;1727873;81;21583;-61
2022/02/19 02:20:54;;;;;;;1.60;0.43;;;;;;;3.98;84.47;96341.83;1720484;81;21015;-61
2022/02/19 02:23:21;;;;;;;3.83;0.90;;;;;;;4.11;84.42;96347.70;1711805;81;21107;-60
2022/02/19 02:25:48;;;;;;;1.98;0.60;;;;;;;4.16;84.34;96350.77;1722862;81;21468;-61
2022/02/19 02:28:15;;;;;;;5.25;0.72;;;;;;;4.16;83.84;96317.20;1729629;81;21036;-61
2022/02/19 02:30:42;;;;;;;1.45;0.40;;;;;;;4.23;83.45;96337.75;1726122;82;21287;-61
2022/02/19 02:33:18;;;;;;;2.60;0.80;;;;;;;4.29;83.81;96344.22;1701305;82;20995;-61
2022/02/19 02:35:47;;;;;;;2.00;0.50;;;;;;;4.30;83.44;96348.44;1725874;82;21564;-60
2022/02/19 02:38:14;;;;;;;2.25;0.53;;;;;;;4.32;83.38;96348.33;1703027;82;21039;-61
2022/02/19 02:40:41;;;;;;;2.15;0.60;;;;;;;4.30;83.16;96329.06;1714406;82;21050;-61
2022/02/19 02:43:08;;;;;;;2.50;0.70;;;;;;;4.32;83.07;96363.83;1700541;82;22320;-61
2022/02/19 02:45:35;;;;;;;2.35;0.88;;;;;;;4.26;82.88;96354.78;1728042;81;21360;-61
2022/02/19 02:48:02;;;;;;;1.40;0.62;;;;;;;4.17;82.81;96352.42;1724343;82;21040;-60
2022/02/19 02:50:28;;;;;;;2.37;0.65;;;;;;;4.10;82.85;96368.02;1734124;81;21048;-60
2022/02/19 02:52:55;;;;;;;1.80;0.80;;;;;;;4.04;82.70;96342.66;1723768;82;21177;-64
2022/02/19 02:55:22;;;;;;;3.22;1.05;;;;;;;3.96;82.72;96345.80;1720410;81;21571;-61
2022/02/19 02:57:48;;;;;;;3.40;0.95;;;;;;;3.93;82.89;96352.96;1731371;81;21042;-60
2022/02/19 03:00:16;;;;;;;3.80;1.00;;;;;;;3.90;82.64;96336.41;1724074;81;20926;-61
2022/02/19 03:02:44;;;;;;;2.10;0.78;;;;;;;3.92;82.65;96356.45;1722946;81;20921;-61
2022/02/19 03:05:12;;;;;;;2.25;0.72;;;;;;;3.94;82.68;96344.27;1701210;82;26526;-61
2022/02/19 03:07:39;;;;;;;0.70;0.60;;;;;;;3.94;82.60;96313.30;1697284;82;21352;-61
2022/02/19 03:10:07;;;;;;;1.62;0.70;;;;;;;3.94;82.23;96328.78;1704016;82;21071;-61
2022/02/19 03:12:34;;;;;;;4.33;1.30;;;;;;;3.96;81.99;96360.47;1721096;81;21100;-61
2022/02/19 03:15:03;;;;;;;4.08;1.20;;;;;;;3.96;81.87;96356.61;1732940;81;21078;-61
2022/02/19 03:17:39;;;;;;;3.83;1.25;;;;;;;3.93;82.02;96358.13;1729934;81;21009;-61
2022/02/19 03:20:08;;;;;;;3.22;1.05;;;;;;;3.91;82.07;96368.55;1719560;82;21181;-61
2022/02/19 03:22:38;;;;;;;3.72;1.15;;;;;;;3.89;81.95;96357.51;1715629;82;21088;-61
2022/02/19 03:25:06;;;;;;;3.22;1.10;;;;;;;3.88;81.66;96349.89;1715377;83;20998;-60
2022/02/19 03:27:33;;;;;;;4.72;1.30;;;;;;;3.91;81.65;96354.83;1713658;83;21340;-61
2022/02/19 03:30:00;;;;;;;2.70;0.88;;;;;;;3.91;81.45;96354.83;1714043;82;21019;-61
2022/02/19 03:32:26;;;;;;;3.37;0.83;;;;;;;3.91;81.62;96352.25;1729294;81;21172;-61
2022/02/19 03:34:53;;;;;;;2.37;0.80;;;;;;;3.89;81.40;96356.69;1727084;81;20984;-61
2022/02/19 03:37:20;;;;;;;5.00;1.10;;;;;;;3.88;81.03;96360.22;1710075;81;20936;-62
2022/02/19 03:39:47;;;;;;;3.00;0.78;;;;;;;3.88;81.13;96353.77;1733076;81;21497;-61
2022/02/19 03:42:13;;;;;;;2.72;1.00;;;;;;;3.87;80.97;96345.68;1738438;81;20945;-61
2022/02/19 03:44:40;;;;;;;3.57;1.10;;;;;;;3.85;80.86;96354.00;1732687;81;21989;-61
2022/02/19 03:47:07;;;;;;;2.10;1.00;;;;;;;3.79;80.90;96338.02;1738813;81;21587;-61
2022/02/19 03:49:34;;;;;;;4.40;1.12;;;;;;;3.74;80.78;96343.98;1736357;81;21849;-61
2022/02/19 03:52:00;;;;;;;2.90;1.10;;;;;;;3.65;80.84;96352.41;1728079;81;21022;-61
2022/02/19 03:54:27;;;;;;;5.22;1.10;;;;;;;3.58;81.00;96339.59;1734043;81;21099;-61
2022/02/19 03:56:54;;;;;;;8.63;0.98;;;;;;;3.53;80.98;96350.73;1719961;81;21356;-61
2022/02/19 03:59:21;;;;;;;2.13;0.93;;;;;;;3.48;81.15;96357.98;1704513;82;21098;-61
2022/02/19 04:01:48;;;;;;;3.55;1.40;;;;;;;3.44;80.97;96328.17;1710401;82;21324;-61
2022/02/19 04:04:14;;;;;;;4.80;1.47;;;;;;;3.42;81.08;96344.21;1725894;81;21051;-61
2022/02/19 04:06:41;;;;;;;7.43;1.40;;;;;;;3.39;81.10;96339.28;1714743;82;21064;-61
2022/02/19 04:09:08;;;;;;;4.90;1.55;;;;;;;3.39;81.07;96335.41;1690597;83;21450;-61
2022/02/19 04:11:34;;;;;;;3.35;1.40;;;;;;;3.39;81.07;96333.68;1708998;82;20962;-61
2022/02/19 04:14:01;;;;;;;7.87;1.20;;;;;;;3.43;80.87;96308.48;1731315;81;21055;-61
2022/02/19 04:16:28;;;;;;;3.45;1.17;;;;;;;3.52;80.95;96321.98;1738354;81;21539;-61
2022/02/19 04:18:55;;;;;;;5.00;1.07;;;;;;;3.57;80.68;96325.05;1741580;81;20992;-61
2022/02/19 04:21:22;;;;;;;7.92;1.92;;;;;;;3.61;80.75;96317.44;1739852;81;21129;-61
2022/02/19 04:23:49;;;;;;;3.30;0.93;;;;;;;3.67;80.08;96295.08;1750259;81;21561;-61
2022/02/19 04:26:16;;;;;;;4.37;1.10;;;;;;;3.77;80.11;96305.05;1752660;81;21059;-61
2022/02/19 04:28:43;;;;;;;5.65;1.02;;;;;;;3.85;80.27;96328.19;1746997;81;21088;-61
2022/02/19 04:31:10;;;;;;;6.08;1.35;;;;;;;3.91;80.09;96329.02;1735052;82;22258;-61
2022/02/19 04:33:37;;;;;;;6.03;1.20;;;;;;;3.95;80.06;96325.25;1716972;82;21840;-61
2022/02/19 04:36:04;;;;;;;6.47;1.52;;;;;;;3.98;79.93;96327.64;1717120;83;21080;-61
2022/02/19 04:38:31;;;;;;;6.72;1.35;;;;;;;4.01;79.66;96304.17;1709795;82;21064;-61
2022/02/19 04:40:58;;;;;;;3.00;1.10;;;;;;;4.00;79.05;96328.31;1732547;81;21558;-61
2022/02/19 04:43:25;;;;;;;5.17;1.40;;;;;;;3.97;79.24;96335.00;1736913;81;20956;-61
2022/02/19 04:45:52;;;;;;;6.78;1.50;;;;;;;3.93;79.04;96335.71;1730773;81;21910;-61
2022/02/19 04:48:18;;;;;;;6.37;1.30;;;;;;;3.90;79.16;96345.45;1718721;81;21029;-61
2022/02/19 04:50:45;;;;;;;7.45;1.57;;;;;;;3.85;79.06;96329.48;1727507;81;21149;-61
2022/02/19 04:53:12;;;;;;;5.15;1.60;;;;;;;3.81;78.91;96358.09;1738734;81;20992;-61
2022/02/19 04:55:38;;;;;;;5.45;1.10;;;;;;;3.78;79.27;96378.12;1725677;81;21025;-61
2022/02/19 04:58:05;;;;;;;7.55;1.62;;;;;;;3.75;78.93;96362.86;1704988;83;21568;-61
2022/02/19 05:00:32;;;;;;;7.70;1.17;;;;;;;3.69;79.04;96377.03;1712563;82;21195;-60
2022/02/19 05:02:58;;;;;;;4.60;1.20;;;;;;;3.63;79.19;96392.97;1727970;82;21577;-62
2022/02/19 05:05:25;;;;;;;1.75;0.75;;;;;;;3.56;79.12;96381.47;1702212;83;21352;-62
2022/02/19 05:07:52;;;;;;;4.90;1.93;;;;;;;3.46;78.98;96358.55;1728353;81;21610;-62
2022/02/19 05:10:19;;;;;;;4.62;1.05;;;;;;;3.33;79.17;96377.49;1727552;81;22354;-62
2022/02/19 05:12:46;;;;;;;4.37;1.30;;;;;;;3.24;79.24;96376.02;1735869;81;21060;-62
2022/02/19 05:15:16;;;;;;;5.05;1.22;;;;;;;3.18;79.36;96374.70;1730091;81;21781;-63
2022/02/19 05:17:51;;;;;;;7.85;1.40;;;;;;;3.17;79.40;96364.05;1734403;81;21490;-62
2022/02/19 05:20:22;;;;;;;6.47;1.75;;;;;;;3.17;79.46;96373.06;1732973;81;21561;-62
2022/02/19 05:22:51;;;;;;;5.95;1.15;;;;;;;3.16;79.54;96375.27;1734863;81;21956;-63
2022/02/19 05:25:18;;;;;;;3.87;1.30;;;;;;;3.17;79.49;96375.64;1737810;81;20897;-63
2022/02/19 05:27:45;;;;;;;2.90;1.20;;;;;;;3.19;79.41;96358.29;1739791;81;21103;-62
2022/02/19 05:30:13;;;;;;;3.52;1.25;;;;;;;3.22;79.51;96365.83;1739958;81;21520;-62
2022/02/19 05:32:40;;;;;;;3.62;1.40;;;;;;;3.26;79.43;96345.33;1738712;81;21623;-62
2022/02/19 05:35:08;;;;;;;5.80;1.32;;;;;;;3.27;79.48;96337.94;1733277;81;21190;-62
2022/02/19 05:37:35;;;;;;;3.00;1.05;;;;;;;3.26;79.39;96351.77;1730675;81;22095;-63
2022/02/19 05:40:04;;;;;;;7.20;2.33;;;;;;;3.24;79.49;96366.52;1729072;81;21080;-62
2022/02/19 05:42:31;;;;;;;6.15;1.30;;;;;;;3.23;79.40;96364.89;1731257;81;21587;-62
2022/02/19 05:45:52;;;;;;;3.77;1.07;;;;;;;3.27;79.42;96340.52;1867178;74;22611;-61
2022/02/19 05:48:19;;;;;;;9.63;1.60;;;;;;;3.24;79.44;96342.50;1831449;76;21023;-61
2022/02/19 05:50:46;;;;;;;4.85;1.17;;;;;;;3.27;79.40;96322.94;1832299;77;21392;-62
2022/02/19 05:53:14;;;;;;;6.58;1.17;;;;;;;3.27;79.46;96344.38;1830660;77;26309;-62
2022/02/19 05:55:41;;;;;;;7.83;1.20;;;;;;;3.28;79.36;96337.03;1835920;76;21020;-62
2022/02/19 05:58:08;;;;;;;7.40;1.40;;;;;;;3.28;79.33;96298.35;1837227;76;20934;-62
2022/02/19 06:00:35;;;;;;;9.63;1.40;;;;;;;3.29;79.26;96333.50;1840820;75;21443;-62
2022/02/19 06:03:02;;;;;;;6.50;1.60;;;;;;;3.28;79.22;96321.55;1842757;76;21421;-62
2022/02/19 06:05:28;;;;;;;3.30;1.20;;;;;;;3.26;79.23;96307.94;1847146;75;20933;-62
2022/02/19 06:07:55;;;;;;;3.70;1.33;;;;;;;3.26;79.12;96313.09;1842045;77;20973;-62
2022/02/19 06:10:22;;;;;;;9.80;1.47;;;;;;;3.33;79.17;96311.73;1839974;77;20935;-62
2022/02/19 06:12:49;;;;;;;4.63;1.50;;;;;;;3.33;79.17;96311.73;1849242;76;21500;-62
2022/02/19 06:15:34;;;;;;;5.63;1.40;;;;;;;3.35;78.98;96309.84;1769624;80;22013;-64
2022/02/19 06:18:04;;;;;;;4.78;1.30;;;;;;;3.33;79.10;96311.73;1797711;78;21529;-62
2022/02/19 06:20:30;;;;;;;;;;;;;;;3.28;78.92;96321.55;1807619;78;21001;-63
2022/02/19 06:22:58;;;;;;;4.83;1.57;;;;;;;3.27;79.04;96338.41;1771640;78;20174;-62
2022/02/19 06:25:27;;;;;;;3.60;1.47;;;;;;;3.20;79.13;96329.02;1809219;77;21583;-63
2022/02/19 06:27:54;;;;;;;4.05;1.62;;;;;;;3.12;79.13;96339.05;1788572;77;21153;-61
2022/02/19 06:30:22;;;;;;;5.10;1.70;;;;;;;3.03;79.24;96352.60;1794529;77;21592;-63
2022/02/19 06:32:49;;;;;;;5.30;1.30;;;;;;;2.94;79.32;96317.14;1767493;78;21313;-63
2022/02/19 06:35:17;;;;;;;4.62;1.27;;;;;;;2.83;79.46;96350.95;1794053;78;20989;-62
2022/02/19 06:37:46;;;;;;;4.62;1.05;;;;;;;2.76;79.58;96325.25;1793575;79;20989;-65
2022/02/19 06:40:15;;;;;;;4.55;1.30;;;;;;;2.64;80.04;96338.99;1810142;78;21739;-62
2022/02/19 06:42:44;;;;;;;5.75;1.10;;;;;;;2.55;79.93;96333.17;1782384;78;20997;-62
2022/02/19 06:45:11;;;;;;;5.95;0.90;;;;;;;2.43;80.01;96345.96;1807229;78;21005;-62
2022/02/19 06:47:39;;;;;;;3.00;1.10;;;;;;;2.33;80.29;96326.94;1801374;79;20994;-62
2022/02/19 06:50:08;;;;;;;;;;;;;;;2.25;80.20;96327.92;1807137;79;21128;-62
2022/02/19 06:52:36;;;;;;;3.55;1.40;;;;;;;2.16;80.44;96326.80;1807268;78;21068;-62
2022/02/19 06:55:05;;;;;;;4.65;1.07;;;;;;;2.07;80.54;96325.30;1809031;79;20974;-62
2022/02/19 06:57:31;;;;;;;5.20;1.32;;;;;;;2.00;80.78;96308.17;1780982;79;21542;-62
2022/02/19 06:59:58;;;;;;;3.22;1.00;;;;;;;1.92;80.91;96314.29;1765937;80;20953;-62
2022/02/19 07:02:25;;;;;;;2.55;1.00;;;;;;;1.87;81.48;96313.30;1760973;80;22216;-62
2022/02/19 07:04:52;;;;;;;5.70;0.97;;;;;;;1.85;81.21;96316.89;1776021;79;21188;-62
2022/02/19 07:07:18;;;;;;;4.80;1.80;;;;;;;1.81;81.49;96303.42;1763540;80;21005;-62
2022/02/19 07:09:45;;;;;;;5.00;1.20;;;;;;;1.79;81.45;96316.41;1770927;80;20957;-62
2022/02/19 07:12:12;;;;;;;3.93;1.20;;;;;;;1.78;81.79;96329.35;1809047;78;21143;-63
2022/02/19 07:14:39;;;;;;;4.58;1.20;;;;;;;1.77;81.77;96320.00;1785294;79;20949;-63
2022/02/19 07:17:06;;;;;;;3.13;1.27;;;;;;;1.77;82.01;96302.00;1804515;79;21433;-62
2022/02/19 07:19:35;;;;;;;6.33;1.20;;;;;;;1.78;82.31;96321.64;1802834;78;21075;-63
2022/02/19 07:22:04;;;;;;;3.65;1.12;;;;;;;1.78;82.24;96306.20;1805338;79;20946;-61
2022/02/19 07:24:33;;;;;;;2.25;1.00;;;;;;;1.75;82.30;96317.98;1795198;79;21730;-64
2022/02/19 07:27:00;;;;;;;1.92;0.85;;;;;;;1.71;82.28;96291.66;1801646;78;20983;-63
2022/02/19 07:29:30;;;;;;;3.70;1.07;;;;;;;1.60;82.83;96307.41;1812508;79;21546;-65
2022/02/19 07:31:57;;;;;;;1.50;1.20;;;;;;;1.60;82.83;96307.41;1805980;78;21685;-62
2022/02/19 07:34:27;;;;;;;1.57;0.70;;;;;;;1.54;82.63;96323.62;1804584;79;20953;-63
2022/02/19 07:36:54;;;;;;;;;;;;;;;1.50;82.78;96338.87;1786427;79;20989;-65
2022/02/19 07:39:30;;;;;;;1.52;0.82;;;;;;;1.44;82.90;96324.31;1806339;79;20247;-62
2022/02/19 07:41:58;;;;;;;0.70;0.40;;;;;;;1.38;83.10;96340.95;1814477;78;21100;-65
2022/02/19 07:44:25;;;;;;;1.12;0.78;;;;;;;1.34;83.18;96321.06;1808313;78;21116;-66
2022/02/19 07:46:52;;;;;;;0.90;0.53;;;;;;;1.30;83.13;96344.48;1786898;79;20975;-62
2022/02/19 08:00:21;;;;;;;0.23;0.20;;;;;;;1.32;84.01;96387.16;1803356;79;21177;-65
2022/02/19 08:02:48;;;;;;;0.47;0.30;;;;;;;1.34;83.91;96402.47;1802023;78;20995;-64
2022/02/19 08:05:17;;;;;;;0.40;0.30;;;;;;;1.33;84.02;96414.97;1809696;79;21017;-64
2022/02/19 08:07:43;;;;;;;;;;;;;;;1.31;84.07;96423.22;1812295;78;21168;-65
2022/02/19 08:10:12;;;;;;;0.30;0.30;;;;;;;1.25;84.13;96425.72;1812768;79;20208;-68
2022/02/19 08:12:38;;;;;;;0.72;0.40;;;;;;;1.21;84.11;96433.73;1812932;79;20977;-66
2022/02/19 08:15:06;;;;;;;1.00;0.70;;;;;;;1.16;84.38;96458.89;1814070;79;21002;-65
2022/02/19 08:17:33;;;;;;;2.05;0.70;;;;;;;1.15;84.31;96466.20;1812650;79;21072;-65
2022/02/19 08:20:03;;;;;;;1.00;0.73;;;;;;;1.16;84.39;96464.84;1804102;78;20948;-67
2022/02/19 08:22:30;;;;;;;0.72;0.50;;;;;;;1.21;84.68;96471.00;1814346;79;20993;-63
2022/02/19 08:24:56;;;;;;;0.65;0.50;;;;;;;1.27;85.18;96475.29;1807073;78;21010;-63
2022/02/19 08:27:23;;;;;;;2.03;0.70;;;;;;;1.37;85.24;96466.53;1794131;79;20966;-62
2022/02/19 08:29:50;;;;;;;1.57;0.85;;;;;;;1.49;85.72;96494.06;1805461;79;20974;-62
2022/02/19 08:32:17;;;;;;;2.05;0.75;;;;;;;1.60;85.55;96531.13;1808338;78;21109;-62
2022/02/19 08:34:44;;;;;;;1.45;0.70;;;;;;;1.68;85.64;96534.05;1803857;78;20946;-62
2022/02/19 08:37:10;;;;;;;2.77;1.02;;;;;;;1.84;86.14;96536.03;1762308;80;20953;-62
2022/02/19 08:39:37;;;;;;;1.15;0.50;;;;;;;1.97;86.03;96548.49;1798124;79;20962;-63
2022/02/19 08:42:26;;;;;;;2.15;1.07;;;;;;;2.12;86.04;96543.28;1862236;74;22664;-63
2022/02/19 08:44:53;;;;;;;2.33;0.85;;;;;;;2.11;86.14;96572.53;1815495;77;21446;-63
2022/02/19 08:47:20;;;;;;;1.35;0.50;;;;;;;2.06;86.55;96591.30;1818631;77;21510;-63
2022/02/19 08:49:47;;;;;;;0.85;0.30;;;;;;;2.03;86.17;96594.88;1834644;77;21458;-63
2022/02/19 08:52:14;;;;;;;0.62;0.40;;;;;;;2.03;86.30;96606.93;1823700;77;20944;-64
2022/02/19 08:54:41;;;;;;;1.60;0.50;;;;;;;2.00;86.33;96604.91;1824632;77;21030;-63
2022/02/19 08:57:08;;;;;;;4.03;0.82;;;;;;;1.99;86.41;96629.00;1824709;76;21026;-63
2022/02/19 08:59:34;;;;;;;0.70;0.60;;;;;;;1.98;86.54;96622.18;1797555;78;22248;-63
2022/02/19 09:02:01;;;;;;;1.47;0.55;;;;;;;1.98;86.68;96631.19;1823395;77;20962;-64
2022/02/19 09:04:28;;;;;;;3.20;0.55;;;;;;;2.00;86.91;96628.06;1826379;77;21493;-64
2022/02/19 09:06:55;;;;;;;1.80;0.65;;;;;;;1.98;87.01;96658.20;1809533;77;21402;-63
2022/02/19 09:09:23;;;;;;;0.50;0.30;;;;;;;1.98;87.13;96653.06;1820354;77;21369;-64
2022/02/19 09:11:50;;;;;;;0.90;0.42;;;;;;;1.99;87.04;96659.88;1818129;77;22230;-64
2022/02/19 09:14:17;;;;;;;1.22;0.55;;;;;;;2.04;87.05;96681.91;1822404;77;21615;-64
2022/02/19 09:16:44;;;;;;;1.50;0.70;;;;;;;2.04;86.99;96698.64;1834649;77;21630;-64
2022/02/19 09:19:11;;;;;;;0.82;0.47;;;;;;;2.01;87.01;96699.19;1824085;77;21078;-65
2022/02/19 09:21:40;;;;;;;2.67;1.22;;;;;;;2.03;87.27;96698.29;1831796;77;20959;-63
2022/02/19 09:24:07;;;;;;;1.80;0.78;;;;;;;2.03;87.17;96709.87;1835117;77;21934;-64
2022/02/19 09:26:34;;;;;;;1.45;0.70;;;;;;;2.06;87.40;96731.55;1826032;77;20999;-64
2022/02/19 09:29:02;;;;;;;3.70;0.90;;;;;;;2.08;87.48;96720.72;1813189;77;21536;-64
2022/02/19 09:31:29;;;;;;;1.80;0.60;;;;;;;2.10;87.78;96727.86;1819160;77;21121;-64
2022/02/19 09:35:51;;;;;;;6.22;1.72;;;;;;;2.16;87.61;96759.22;1880130;74;23391;-63
2022/02/19 09:38:19;;;;;;;3.72;1.07;;;;;;;2.15;87.73;96785.04;1846257;76;20981;-64
2022/02/19 09:40:47;;;;;;;1.70;0.60;;;;;;;2.16;87.76;96799.58;1800397;77;22078;-64
2022/02/19 09:43:14;;;;;;;6.12;1.67;;;;;;;2.13;87.83;96808.75;1842134;76;20981;-64
2022/02/19 09:45:42;;;;;;;3.52;1.07;;;;;;;2.10;87.85;96823.94;1835700;76;21122;-63
2022/02/19 09:48:10;;;;;;;1.50;0.88;;;;;;;2.11;87.98;96823.48;1858863;75;20875;-64
2022/02/19 09:50:38;;;;;;;5.97;1.87;;;;;;;2.09;88.01;96844.61;1830762;76;20907;-62
2022/02/19 09:53:05;;;;;;;3.80;1.20;;;;;;;2.13;88.27;96822.91;1836772;76;22005;-63
2022/02/19 09:55:36;;;;;;;3.02;1.17;;;;;;;2.22;88.45;96849.41;1847735;76;21052;-63
2022/02/19 09:58:04;;;;;;;8.00;1.77;;;;;;;2.25;88.41;96871.11;1837989;76;20977;-64
2022/02/19 10:00:45;;;;;;;3.20;1.12;;;;;;;2.29;88.50;96869.99;1835245;76;21499;-64
2022/02/19 10:03:25;;;;;;;3.98;1.00;;;;;;;2.34;88.57;96889.86;1835355;76;20977;-64
2022/02/19 10:05:55;;;;;;;3.27;1.00;;;;;;;2.40;88.63;96906.23;1846944;76;21093;-65
2022/02/19 10:08:23;;;;;;;4.58;0.93;;;;;;;2.46;88.65;96878.84;1840714;75;21522;-64
2022/02/19 10:10:53;;;;;;;7.25;2.33;;;;;;;2.49;88.57;96945.23;1838360;76;21088;-66
2022/02/19 10:13:38;;;;;;;2.83;0.50;;;;;;;2.44;88.53;96920.59;1836441;77;20926;-66
2022/02/19 10:16:07;;;;;;;3.40;0.95;;;;;;;2.37;88.49;96973.37;1846920;76;20997;-70
2022/02/19 10:18:45;;;;;;;2.55;1.10;;;;;;;2.28;88.34;96986.78;1836007;76;21553;-66
2022/02/19 10:21:18;;;;;;;1.42;0.50;;;;;;;2.23;88.31;96999.09;1844915;76;20947;-65
2022/02/19 10:23:53;;;;;;;1.37;0.53;;;;;;;2.14;88.37;96982.42;1837096;76;21250;-66
2022/02/19 10:26:23;;;;;;;2.22;0.98;;;;;;;2.05;88.54;97020.73;1846610;76;21539;-65
2022/02/19 10:29:02;;;;;;;2.20;0.68;;;;;;;2.04;88.89;97003.61;1846968;76;21009;-63
2022/02/19 10:31:31;;;;;;;2.70;1.07;;;;;;;2.03;88.86;97046.55;1841149;76;21119;-65
2022/02/19 10:34:16;;;;;;;2.05;1.10;;;;;;;1.97;88.90;97027.13;1842125;76;20875;-66
2022/02/19 10:36:54;;;;;;;3.83;0.88;;;;;;;1.97;88.83;97070.88;1851980;76;20922;-65
2022/02/19 10:39:34;;;;;;;1.67;0.60;;;;;;;2.00;88.96;97061.70;1844244;76;21001;-64
2022/02/19 10:42:06;;;;;;;2.37;0.80;;;;;;;2.09;89.26;97064.67;1845526;76;21024;-64
2022/02/19 10:44:35;;;;;;;1.62;0.85;;;;;;;2.17;89.12;97078.78;1799069;77;21921;-64
2022/02/19 10:47:21;;;;;;;3.58;1.00;;;;;;;2.16;89.03;97090.47;1793441;78;20898;-63
2022/02/19 10:50:16;;;;;;;2.25;0.88;;;;;;;2.03;88.66;97110.06;1798497;78;20886;-63
2022/02/19 10:52:44;;;;;;;3.95;1.55;;;;;;;1.91;88.81;97112.39;1781190;78;20898;-64
2022/02/19 10:55:17;;;;;;;4.87;1.00;;;;;;;1.94;89.08;97119.94;1793812;78;21526;-64
2022/02/19 10:57:49;;;;;;;2.37;1.00;;;;;;;2.03;89.44;97131.48;1788087;78;22459;-65
2022/02/19 11:00:21;;;;;;;1.80;0.98;;;;;;;2.11;89.34;97143.94;1791706;79;21584;-65
2022/02/19 11:02:49;;;;;;;1.80;0.72;;;;;;;2.22;89.33;97149.33;1811550;78;21519;-64
2022/02/19 11:05:20;;;;;;;1.85;0.80;;;;;;;2.24;89.22;97119.16;1809023;77;20937;-66
2022/02/19 11:07:49;;;;;;;3.47;0.93;;;;;;;2.21;88.95;97137.36;1778148;78;21488;-65
2022/02/19 11:10:20;;;;;;;2.50;0.72;;;;;;;2.12;88.91;97150.73;1783401;79;21080;-66
2022/02/19 11:12:48;;;;;;;3.15;0.90;;;;;;;2.10;89.15;97129.39;1781185;78;20914;-66
2022/02/19 11:15:23;;;;;;;5.97;1.30;;;;;;;2.09;89.29;97157.34;1791029;78;22278;-66
2022/02/19 11:17:51;;;;;;;4.03;1.22;;;;;;;2.08;89.34;97162.12;1793037;78;20982;-64
2022/02/19 11:20:19;;;;;;;4.97;0.90;;;;;;;2.07;89.56;97157.87;1795715;78;20898;-66
2022/02/19 11:22:47;;;;;;;4.83;1.10;;;;;;;2.08;89.56;97154.41;1787148;78;21090;-68
2022/02/19 11:25:19;;;;;;;;;;;;;;;2.08;89.67;97165.98;1806766;78;20997;-66
2022/02/19 11:28:06;;;;;;;4.03;1.30;;;;;;;2.10;89.76;97175.72;1811611;78;20134;-67
2022/02/19 11:30:49;;;;;;;4.58;1.42;;;;;;;2.12;89.86;97168.30;1803921;78;20989;-67
2022/02/19 11:33:18;;;;;;;6.62;1.65;;;;;;;2.13;89.84;97193.57;1799660;78;20997;-65
2022/02/19 11:35:46;;;;;;;3.08;1.30;;;;;;;2.16;89.90;97180.56;1794895;78;21313;-64
2022/02/19 11:38:35;;;;;;;3.98;1.02;;;;;;;2.18;89.82;97204.45;1795145;78;20985;-63
2022/02/19 11:41:07;;;;;;;5.08;1.05;;;;;;;2.20;89.88;97213.77;1792689;78;21614;-65
2022/02/19 11:43:47;;;;;;;4.37;1.17;;;;;;;2.31;90.03;97227.81;1792227;78;21032;-64
2022/02/19 11:46:19;;;;;;;2.75;0.90;;;;;;;2.44;90.05;97261.84;1797868;78;20953;-66
2022/02/19 11:48:49;;;;;;;4.42;1.15;;;;;;;2.46;89.69;97276.77;1788634;78;21091;-69
2022/02/19 11:51:20;;;;;;;3.50;1.15;;;;;;;2.39;89.53;97298.59;1796718;78;21039;-68
2022/02/19 11:53:50;;;;;;;5.35;1.25;;;;;;;2.35;89.58;97309.98;1799801;78;20989;-66
2022/02/19 11:56:35;;;;;;;4.80;1.40;;;;;;;2.32;89.50;97307.55;1794595;78;20984;-66
2022/02/19 11:59:06;;;;;;;7.03;1.27;;;;;;;2.26;89.53;97330.22;1797921;78;21003;-66
2022/02/19 12:01:33;;;;;;;4.85;1.42;;;;;;;2.24;89.54;97352.17;1805606;78;22399;-67
2022/02/19 12:04:14;;;;;;;;;;;;;;;2.20;89.56;97359.69;1802185;78;20934;-68
2022/02/19 12:06:46;;;;;;;3.85;1.15;;;;;;;2.20;89.64;97355.83;1806024;78;20483;-67
2022/02/19 12:09:18;;;;;;;3.15;0.60;;;;;;;2.15;89.52;97368.09;1798874;78;20993;-66
2022/02/19 12:12:09;;;;;;;3.42;0.88;;;;;;;2.12;89.56;97379.37;1780308;78;21020;-65
2022/02/19 12:14:47;;;;;;;1.40;0.80;;;;;;;2.14;89.69;97375.45;1796659;78;21040;-64
2022/02/19 12:17:19;;;;;;;4.83;1.55;;;;;;;2.16;89.61;97395.06;1796695;78;21036;-62
2022/02/19 12:19:59;;;;;;;1.85;0.62;;;;;;;2.16;89.61;97414.83;1800238;78;21554;-63
2022/02/19 12:22:39;;;;;;;3.15;1.17;;;;;;;2.15;89.64;97431.17;1797108;78;21024;-64
2022/02/19 12:25:13;;;;;;;3.47;1.17;;;;;;;2.09;89.67;97455.94;1795947;78;21268;-65
2022/02/19 12:27:43;;;;;;;5.95;1.12;;;;;;;2.03;89.70;97450.63;1803331;78;20962;-66
2022/02/19 12:30:25;;;;;;;4.37;1.25;;;;;;;1.96;89.84;97478.42;1797991;78;20993;-65
2022/02/19 12:32:58;;;;;;;4.45;1.42;;;;;;;1.94;89.85;97495.67;1797172;78;20993;-63
2022/02/19 12:35:45;;;;;;;4.28;1.17;;;;;;;1.92;89.92;97519.35;1793830;78;20981;-64
2022/02/19 12:38:14;;;;;;;6.37;1.05;;;;;;;1.84;89.85;97512.45;1799304;78;21032;-69
2022/02/19 12:40:43;;;;;;;3.65;1.37;;;;;;;1.67;89.64;97551.00;1777542;78;21174;-65
2022/02/19 12:43:18;;;;;;;4.15;1.10;;;;;;;1.50;89.83;97542.77;1784124;78;21621;-65
2022/02/19 12:45:48;;;;;;;2.42;0.90;;;;;;;1.34;90.00;97567.04;1794212;79;21016;-64
2022/02/19 12:48:15;;;;;;;5.03;1.40;;;;;;;1.28;90.35;97560.44;1798242;79;20988;-64
2022/02/19 12:50:55;;;;;;;4.65;0.90;;;;;;;1.32;90.72;97544.44;1796094;79;21065;-65
2022/02/19 12:53:23;;;;;;;3.83;1.07;;;;;;;1.42;91.00;97583.42;1789132;78;21905;-65
2022/02/19 12:55:57;;;;;;;3.05;0.85;;;;;;;1.48;91.34;97608.41;1784427;78;21485;-65
2022/02/19 12:58:25;;;;;;;4.55;1.22;;;;;;;1.50;91.63;97600.63;1782469;79;21576;-66
2022/02/19 13:00:58;;;;;;;2.55;0.88;;;;;;;1.52;91.47;97622.81;1787034;79;21071;-65
2022/02/19 13:03:25;;;;;;;1.70;0.70;;;;;;;1.56;91.17;97626.91;1768853;79;21071;-65
2022/02/19 13:05:56;;;;;;;6.15;1.32;;;;;;;1.64;91.12;97643.75;1787542;78;21876;-65
2022/02/19 13:08:26;;;;;;;2.85;1.10;;;;;;;1.70;91.06;97646.05;1787960;78;21037;-66
2022/02/19 13:11:01;;;;;;;3.95;1.10;;;;;;;1.78;90.98;97677.41;1765630;79;20972;-66
2022/02/19 13:13:28;;;;;;;1.72;0.78;;;;;;;1.87;91.08;97673.59;1755982;79;21012;-65
2022/02/19 13:16:00;;;;;;;2.85;0.70;;;;;;;1.96;90.97;97689.47;1789340;78;21016;-65
2022/02/19 13:18:42;;;;;;;3.00;0.80;;;;;;;2.00;90.67;97701.29;1786543;79;21071;-64
2022/02/19 13:21:11;;;;;;;5.30;0.85;;;;;;;2.05;90.52;97718.28;1783342;79;21246;-64
2022/02/19 13:23:38;;;;;;;2.05;0.80;;;;;;;2.09;90.40;97722.37;1772809;80;21550;-64
2022/02/19 13:26:05;;;;;;;2.27;0.80;;;;;;;2.11;90.09;97739.88;1772254;80;21587;-63
2022/02/19 13:28:33;;;;;;;2.90;0.80;;;;;;;2.14;90.16;97753.91;1770577;80;21026;-63
2022/02/19 13:31:15;;;;;;;2.95;0.78;;;;;;;2.12;89.90;97772.44;1761202;80;21911;-63
2022/02/19 13:33:44;;;;;;;1.92;0.57;;;;;;;2.11;90.10;97777.21;1728119;80;21070;-64
2022/02/19 13:36:11;;;;;;;5.65;1.20;;;;;;;2.07;90.19;97784.67;1779197;77;21025;-64
2022/02/19 13:38:37;;;;;;;1.85;0.70;;;;;;;2.06;90.25;97781.72;1806182;78;21005;-64
2022/02/19 13:41:04;;;;;;;8.00;1.10;;;;;;;2.11;90.44;97785.77;1810415;78;20916;-64
2022/02/19 13:43:31;;;;;;;4.33;0.90;;;;;;;2.20;90.34;97815.42;1803303;78;21472;-65
2022/02/19 13:46:15;;;;;;;3.50;0.90;;;;;;;2.32;90.07;97810.17;1800992;78;21534;-64
2022/02/19 13:51:33;;;;;;;3.15;0.80;;;;;;;2.48;89.96;97839.96;1730466;81;20933;-64
2022/02/19 13:54:21;;;;;;;3.67;0.90;;;;;;;2.52;89.27;97837.61;1727834;81;20935;-64
2022/02/19 13:56:48;;;;;;;4.05;0.78;;;;;;;2.57;89.24;97839.53;1726283;81;21072;-64
2022/02/19 13:59:21;;;;;;;5.97;1.15;;;;;;;2.55;89.32;97859.37;1728931;81;21028;-65
2022/02/19 14:01:52;;;;;;;4.50;1.17;;;;;;;2.41;89.58;97859.55;1728897;81;21025;-64
2022/02/19 14:04:35;;;;;;;3.33;1.10;;;;;;;2.31;89.77;97874.19;1700056;81;21551;-63
2022/02/19 14:07:14;;;;;;;3.47;0.90;;;;;;;2.26;90.10;97864.08;1730158;81;20961;-64
2022/02/19 14:09:40;;;;;;;3.98;1.12;;;;;;;2.26;90.25;97855.52;1682452;84;21367;-64
2022/02/19 14:12:10;;;;;;;2.37;0.75;;;;;;;2.25;90.63;97898.46;1683694;84;21086;-65
2022/02/19 14:14:38;;;;;;;2.42;1.12;;;;;;;2.26;90.42;97906.56;1727573;81;21597;-63